sensor_id;sensor_type;location;lat;lon;timestamp;temperature;humidity
46366;DHT22;32073;49.166;8.076;2022-12-20T00:03:27;8.30;59.50
46366;DHT22;32073;49.166;8.076;2022-12-20T00:07:27;8.20;59.50
46366;DHT22;32073;49.166;8.076;2022-12-20T00:11:29;8.20;59.50
46366;DHT22;32073;49.166;8.076;2022-12-20T00:15:29;8.20;59.50
46366;DHT22;32073;49.166;8.076;2022-12-20T00:19:31;8.20;59.50
46366;DHT22;32073;49.166;8.076;2022-12-20T00:23:33;8.20;59.50
46366;DHT22;32073;49.166;8.076;2022-12-20T00:27:34;8.20;59.50
46366;DHT22;32073;49.166;8.076;2022-12-20T00:31:34;8.30;59.50
46366;DHT22;32073;49.166;8.076;2022-12-20T00:35:35;8.30;59.50
46366;DHT22;32073;49.166;8.076;2022-12-20T00:39:41;8.30;59.50
46366;DHT22;32073;49.166;8.076;2022-12-20T00:43:42;8.30;59.40
46366;DHT22;32073;49.166;8.076;2022-12-20T00:47:43;8.30;59.30
46366;DHT22;32073;49.166;8.076;2022-12-20T00:51:43;8.30;59.10
46366;DHT22;32073;49.166;8.076;2022-12-20T00:55:45;8.30;59.10
46366;DHT22;32073;49.166;8.076;2022-12-20T00:59:46;8.30;59.10
46366;DHT22;32073;49.166;8.076;2022-12-20T01:03:48;8.30;59.20
46366;DHT22;32073;49.166;8.076;2022-12-20T01:07:49;8.30;59.40
46366;DHT22;32073;49.166;8.076;2022-12-20T01:11:49;8.30;59.20
46366;DHT22;32073;49.166;8.076;2022-12-20T01:15:50;8.30;59.20
46366;DHT22;32073;49.166;8.076;2022-12-20T01:19:51;8.30;59.10
46366;DHT22;32073;49.166;8.076;2022-12-20T01:23:52;8.20;58.90
46366;DHT22;32073;49.166;8.076;2022-12-20T01:27:53;8.20;59.00
46366;DHT22;32073;49.166;8.076;2022-12-20T01:31:53;8.20;59.00
46366;DHT22;32073;49.166;8.076;2022-12-20T01:35:58;8.20;59.10
46366;DHT22;32073;49.166;8.076;2022-12-20T01:40:07;8.20;59.10
46366;DHT22;32073;49.166;8.076;2022-12-20T01:48:20;8.20;59.20
46366;DHT22;32073;49.166;8.076;2022-12-20T01:52:32;8.20;59.20
46366;DHT22;32073;49.166;8.076;2022-12-20T01:56:35;8.20;59.10
46366;DHT22;32073;49.166;8.076;2022-12-20T02:00:37;8.10;58.90
46366;DHT22;32073;49.166;8.076;2022-12-20T02:04:38;8.10;58.90
46366;DHT22;32073;49.166;8.076;2022-12-20T02:08:39;8.10;58.90
46366;DHT22;32073;49.166;8.076;2022-12-20T02:12:45;8.00;58.70
46366;DHT22;32073;49.166;8.076;2022-12-20T02:22:13;8.00;59.00
46366;DHT22;32073;49.166;8.076;2022-12-20T02:31:09;8.00;58.90
46366;DHT22;32073;49.166;8.076;2022-12-20T02:35:17;8.00;58.90
46366;DHT22;32073;49.166;8.076;2022-12-20T02:39:22;8.00;58.90
46366;DHT22;32073;49.166;8.076;2022-12-20T02:43:23;8.00;59.60
46366;DHT22;32073;49.166;8.076;2022-12-20T02:47:47;7.90;58.90
46366;DHT22;32073;49.166;8.076;2022-12-20T02:51:53;7.90;58.90
46366;DHT22;32073;49.166;8.076;2022-12-20T02:56:19;7.90;59.00
46366;DHT22;32073;49.166;8.076;2022-12-20T03:00:24;7.90;59.00
46366;DHT22;32073;49.166;8.076;2022-12-20T03:04:30;7.90;58.90
46366;DHT22;32073;49.166;8.076;2022-12-20T03:08:32;7.90;58.90
46366;DHT22;32073;49.166;8.076;2022-12-20T03:12:33;7.90;58.90
46366;DHT22;32073;49.166;8.076;2022-12-20T03:16:34;7.80;58.80
46366;DHT22;32073;49.166;8.076;2022-12-20T03:20:34;7.80;58.70
46366;DHT22;32073;49.166;8.076;2022-12-20T03:24:35;7.70;58.70
46366;DHT22;32073;49.166;8.076;2022-12-20T03:28:36;7.70;58.80
46366;DHT22;32073;49.166;8.076;2022-12-20T03:32:37;7.70;58.80
46366;DHT22;32073;49.166;8.076;2022-12-20T03:36:37;7.60;58.80
46366;DHT22;32073;49.166;8.076;2022-12-20T03:40:38;7.60;58.80
46366;DHT22;32073;49.166;8.076;2022-12-20T03:44:38;7.60;58.90
46366;DHT22;32073;49.166;8.076;2022-12-20T03:48:39;7.60;59.40
46366;DHT22;32073;49.166;8.076;2022-12-20T03:52:40;7.50;58.70
46366;DHT22;32073;49.166;8.076;2022-12-20T03:56:40;7.50;58.80
46366;DHT22;32073;49.166;8.076;2022-12-20T04:00:41;7.40;58.70
46366;DHT22;32073;49.166;8.076;2022-12-20T04:04:42;7.40;58.90
46366;DHT22;32073;49.166;8.076;2022-12-20T04:08:43;7.40;59.10
46366;DHT22;32073;49.166;8.076;2022-12-20T04:12:44;7.40;59.30
46366;DHT22;32073;49.166;8.076;2022-12-20T04:16:44;7.50;59.40
46366;DHT22;32073;49.166;8.076;2022-12-20T04:20:51;7.50;59.40
46366;DHT22;32073;49.166;8.076;2022-12-20T04:24:52;7.50;59.40
46366;DHT22;32073;49.166;8.076;2022-12-20T04:28:53;7.50;59.40
46366;DHT22;32073;49.166;8.076;2022-12-20T04:32:54;7.50;59.50
46366;DHT22;32073;49.166;8.076;2022-12-20T04:36:54;7.60;59.60
46366;DHT22;32073;49.166;8.076;2022-12-20T04:40:55;7.60;59.70
46366;DHT22;32073;49.166;8.076;2022-12-20T04:44:56;7.70;59.70
46366;DHT22;32073;49.166;8.076;2022-12-20T04:48:57;7.70;59.70
46366;DHT22;32073;49.166;8.076;2022-12-20T04:52:57;7.70;59.70
46366;DHT22;32073;49.166;8.076;2022-12-20T04:57:17;7.80;59.80
46366;DHT22;32073;49.166;8.076;2022-12-20T05:01:18;7.80;59.70
46366;DHT22;32073;49.166;8.076;2022-12-20T05:05:19;7.80;59.60
46366;DHT22;32073;49.166;8.076;2022-12-20T05:09:20;7.80;59.70
46366;DHT22;32073;49.166;8.076;2022-12-20T05:13:20;7.80;59.70
46366;DHT22;32073;49.166;8.076;2022-12-20T05:17:21;7.80;59.70
46366;DHT22;32073;49.166;8.076;2022-12-20T05:21:22;7.80;59.80
46366;DHT22;32073;49.166;8.076;2022-12-20T05:25:45;7.80;59.90
46366;DHT22;32073;49.166;8.076;2022-12-20T05:30:06;7.90;59.80
46366;DHT22;32073;49.166;8.076;2022-12-20T05:34:07;7.90;59.80
46366;DHT22;32073;49.166;8.076;2022-12-20T05:38:09;7.80;59.90
46366;DHT22;32073;49.166;8.076;2022-12-20T05:42:10;7.90;59.90
46366;DHT22;32073;49.166;8.076;2022-12-20T05:46:11;7.90;60.00
46366;DHT22;32073;49.166;8.076;2022-12-20T05:50:12;7.90;60.00
46366;DHT22;32073;49.166;8.076;2022-12-20T05:54:13;7.90;60.10
46366;DHT22;32073;49.166;8.076;2022-12-20T05:58:13;7.90;60.20
46366;DHT22;32073;49.166;8.076;2022-12-20T06:02:14;7.90;60.30
46366;DHT22;32073;49.166;8.076;2022-12-20T06:06:15;7.90;60.40
46366;DHT22;32073;49.166;8.076;2022-12-20T06:10:16;8.00;60.50
46366;DHT22;32073;49.166;8.076;2022-12-20T06:14:17;8.00;60.50
46366;DHT22;32073;49.166;8.076;2022-12-20T06:18:17;8.00;60.50
46366;DHT22;32073;49.166;8.076;2022-12-20T06:22:18;8.10;60.60
46366;DHT22;32073;49.166;8.076;2022-12-20T06:26:18;8.10;60.60
46366;DHT22;32073;49.166;8.076;2022-12-20T06:30:20;8.10;60.60
46366;DHT22;32073;49.166;8.076;2022-12-20T06:34:21;8.20;60.70
46366;DHT22;32073;49.166;8.076;2022-12-20T06:38:22;8.20;60.70
46366;DHT22;32073;49.166;8.076;2022-12-20T06:42:24;8.20;60.60
46366;DHT22;32073;49.166;8.076;2022-12-20T06:46:24;8.30;60.70
46366;DHT22;32073;49.166;8.076;2022-12-20T06:50:26;8.40;60.70
46366;DHT22;32073;49.166;8.076;2022-12-20T06:54:27;8.40;60.70
46366;DHT22;32073;49.166;8.076;2022-12-20T06:58:27;8.40;60.70
46366;DHT22;32073;49.166;8.076;2022-12-20T07:02:28;8.40;60.60
46366;DHT22;32073;49.166;8.076;2022-12-20T07:06:29;8.40;60.60
46366;DHT22;32073;49.166;8.076;2022-12-20T07:10:32;8.40;60.60
46366;DHT22;32073;49.166;8.076;2022-12-20T07:14:33;8.40;60.60
46366;DHT22;32073;49.166;8.076;2022-12-20T07:18:34;8.50;60.70
46366;DHT22;32073;49.166;8.076;2022-12-20T07:22:35;8.50;60.60
46366;DHT22;32073;49.166;8.076;2022-12-20T07:26:36;8.50;60.60
46366;DHT22;32073;49.166;8.076;2022-12-20T07:30:36;8.50;60.60
46366;DHT22;32073;49.166;8.076;2022-12-20T07:34:37;8.50;60.40
46366;DHT22;32073;49.166;8.076;2022-12-20T07:38:38;8.60;60.50
46366;DHT22;32073;49.166;8.076;2022-12-20T07:42:38;8.60;60.50
46366;DHT22;32073;49.166;8.076;2022-12-20T07:46:39;8.60;60.40
46366;DHT22;32073;49.166;8.076;2022-12-20T07:50:40;8.60;60.40
46366;DHT22;32073;49.166;8.076;2022-12-20T07:55:02;8.60;60.40
46366;DHT22;32073;49.166;8.076;2022-12-20T07:59:05;8.50;60.50
46366;DHT22;32073;49.166;8.076;2022-12-20T08:03:29;8.50;60.40
46366;DHT22;32073;49.166;8.076;2022-12-20T08:07:33;8.50;60.70
46366;DHT22;32073;49.166;8.076;2022-12-20T08:11:36;8.50;60.60
46366;DHT22;32073;49.166;8.076;2022-12-20T08:15:37;8.50;60.70
46366;DHT22;32073;49.166;8.076;2022-12-20T08:19:38;8.50;60.70
46366;DHT22;32073;49.166;8.076;2022-12-20T08:23:39;8.50;60.70
46366;DHT22;32073;49.166;8.076;2022-12-20T08:27:40;8.50;60.80
46366;DHT22;32073;49.166;8.076;2022-12-20T08:31:40;8.50;60.90
46366;DHT22;32073;49.166;8.076;2022-12-20T08:35:41;8.60;61.10
46366;DHT22;32073;49.166;8.076;2022-12-20T08:39:42;8.70;61.30
46366;DHT22;32073;49.166;8.076;2022-12-20T08:43:43;8.80;61.50
46366;DHT22;32073;49.166;8.076;2022-12-20T08:47:43;8.90;61.60
46366;DHT22;32073;49.166;8.076;2022-12-20T08:51:44;9.00;61.80
46366;DHT22;32073;49.166;8.076;2022-12-20T08:55:45;9.10;61.90
46366;DHT22;32073;49.166;8.076;2022-12-20T08:59:45;9.30;62.00
46366;DHT22;32073;49.166;8.076;2022-12-20T09:03:47;9.40;62.50
46366;DHT22;32073;49.166;8.076;2022-12-20T09:07:47;9.50;61.90
46366;DHT22;32073;49.166;8.076;2022-12-20T09:11:48;9.60;62.10
46366;DHT22;32073;49.166;8.076;2022-12-20T09:15:49;9.70;62.10
46366;DHT22;32073;49.166;8.076;2022-12-20T09:19:49;9.80;62.10
46366;DHT22;32073;49.166;8.076;2022-12-20T09:23:51;9.90;62.00
46366;DHT22;32073;49.166;8.076;2022-12-20T09:27:53;9.90;62.10
46366;DHT22;32073;49.166;8.076;2022-12-20T09:31:55;10.10;62.20
46366;DHT22;32073;49.166;8.076;2022-12-20T09:35:57;10.10;62.10
46366;DHT22;32073;49.166;8.076;2022-12-20T09:39:58;10.20;62.20
46366;DHT22;32073;49.166;8.076;2022-12-20T09:44:06;10.30;62.30
46366;DHT22;32073;49.166;8.076;2022-12-20T09:48:20;10.40;62.40
46366;DHT22;32073;49.166;8.076;2022-12-20T09:56:35;10.60;62.40
46366;DHT22;32073;49.166;8.076;2022-12-20T10:00:44;10.80;62.60
46366;DHT22;32073;49.166;8.076;2022-12-20T10:04:46;10.80;62.70
46366;DHT22;32073;49.166;8.076;2022-12-20T10:08:59;11.10;62.50
46366;DHT22;32073;49.166;8.076;2022-12-20T10:13:32;11.20;62.80
46366;DHT22;32073;49.166;8.076;2022-12-20T10:17:49;11.30;62.70
46366;DHT22;32073;49.166;8.076;2022-12-20T10:22:16;11.40;62.50
46366;DHT22;32073;49.166;8.076;2022-12-20T10:26:27;11.50;62.40
46366;DHT22;32073;49.166;8.076;2022-12-20T10:30:31;11.70;62.20
46366;DHT22;32073;49.166;8.076;2022-12-20T10:34:32;11.80;62.20
46366;DHT22;32073;49.166;8.076;2022-12-20T10:38:44;11.80;62.60
46366;DHT22;32073;49.166;8.076;2022-12-20T10:42:46;11.90;61.90
46366;DHT22;32073;49.166;8.076;2022-12-20T10:46:51;12.00;61.90
46366;DHT22;32073;49.166;8.076;2022-12-20T10:50:56;12.00;61.70
46366;DHT22;32073;49.166;8.076;2022-12-20T10:55:00;12.10;61.60
46366;DHT22;32073;49.166;8.076;2022-12-20T11:03:19;12.20;61.50
46366;DHT22;32073;49.166;8.076;2022-12-20T11:07:24;12.20;61.50
46366;DHT22;32073;49.166;8.076;2022-12-20T11:11:27;12.30;61.50
46366;DHT22;32073;49.166;8.076;2022-12-20T11:15:31;12.40;61.50
46366;DHT22;32073;49.166;8.076;2022-12-20T11:19:43;12.40;61.40
46366;DHT22;32073;49.166;8.076;2022-12-20T11:23:57;12.40;61.20
46366;DHT22;32073;49.166;8.076;2022-12-20T11:28:50;12.50;60.90
46366;DHT22;32073;49.166;8.076;2022-12-20T11:41:43;12.50;60.60
46366;DHT22;32073;49.166;8.076;2022-12-20T11:55:28;12.50;60.70
46366;DHT22;32073;49.166;8.076;2022-12-20T12:03:39;12.50;60.50
46366;DHT22;32073;49.166;8.076;2022-12-20T12:07:43;12.50;60.50
46366;DHT22;32073;49.166;8.076;2022-12-20T12:11:55;12.50;60.50
46366;DHT22;32073;49.166;8.076;2022-12-20T12:16:15;12.60;60.40
46366;DHT22;32073;49.166;8.076;2022-12-20T12:20:44;12.60;60.30
46366;DHT22;32073;49.166;8.076;2022-12-20T12:24:51;12.60;60.20
46366;DHT22;32073;49.166;8.076;2022-12-20T12:28:58;12.60;60.20
46366;DHT22;32073;49.166;8.076;2022-12-20T12:33:06;12.60;60.30
46366;DHT22;32073;49.166;8.076;2022-12-20T12:46:32;12.80;60.10
46366;DHT22;32073;49.166;8.076;2022-12-20T12:50:37;12.90;60.10
46366;DHT22;32073;49.166;8.076;2022-12-20T12:54:40;12.90;60.30
46366;DHT22;32073;49.166;8.076;2022-12-20T12:58:41;13.00;60.30
46366;DHT22;32073;49.166;8.076;2022-12-20T13:03:12;13.00;60.20
46366;DHT22;32073;49.166;8.076;2022-12-20T13:11:38;13.10;59.60
46366;DHT22;32073;49.166;8.076;2022-12-20T13:19:50;13.10;59.60
46366;DHT22;32073;49.166;8.076;2022-12-20T13:28:49;13.10;59.20
46366;DHT22;32073;49.166;8.076;2022-12-20T13:36:57;13.10;59.50
46366;DHT22;32073;49.166;8.076;2022-12-20T13:40:59;13.20;59.40
46366;DHT22;32073;49.166;8.076;2022-12-20T13:45:03;13.20;59.50
46366;DHT22;32073;49.166;8.076;2022-12-20T13:49:10;13.20;59.40
46366;DHT22;32073;49.166;8.076;2022-12-20T13:53:18;13.20;59.10
46366;DHT22;32073;49.166;8.076;2022-12-20T13:57:33;13.20;59.00
46366;DHT22;32073;49.166;8.076;2022-12-20T14:01:54;13.30;59.00
46366;DHT22;32073;49.166;8.076;2022-12-20T14:06:00;13.30;59.00
46366;DHT22;32073;49.166;8.076;2022-12-20T14:10:11;13.20;59.10
46366;DHT22;32073;49.166;8.076;2022-12-20T14:14:17;13.30;59.20
46366;DHT22;32073;49.166;8.076;2022-12-20T14:18:23;13.20;59.20
46366;DHT22;32073;49.166;8.076;2022-12-20T14:22:24;13.30;59.10
46366;DHT22;32073;49.166;8.076;2022-12-20T14:26:29;13.30;59.30
46366;DHT22;32073;49.166;8.076;2022-12-20T14:30:40;13.30;59.20
46366;DHT22;32073;49.166;8.076;2022-12-20T14:34:42;13.30;59.10
46366;DHT22;32073;49.166;8.076;2022-12-20T14:38:48;13.30;59.10
46366;DHT22;32073;49.166;8.076;2022-12-20T14:42:50;13.30;59.10
46366;DHT22;32073;49.166;8.076;2022-12-20T14:47:20;13.30;59.10
46366;DHT22;32073;49.166;8.076;2022-12-20T14:51:21;13.30;58.90
46366;DHT22;32073;49.166;8.076;2022-12-20T14:55:31;13.30;59.00
46366;DHT22;32073;49.166;8.076;2022-12-20T14:59:36;13.30;59.00
46366;DHT22;32073;49.166;8.076;2022-12-20T15:03:51;13.30;59.00
46366;DHT22;32073;49.166;8.076;2022-12-20T15:12:18;13.20;58.70
46366;DHT22;32073;49.166;8.076;2022-12-20T15:16:24;13.20;58.90
46366;DHT22;32073;49.166;8.076;2022-12-20T15:20:28;13.20;58.80
46366;DHT22;32073;49.166;8.076;2022-12-20T15:24:29;13.30;59.00
46366;DHT22;32073;49.166;8.076;2022-12-20T15:28:29;13.30;58.80
46366;DHT22;32073;49.166;8.076;2022-12-20T15:32:31;13.20;58.80
46366;DHT22;32073;49.166;8.076;2022-12-20T15:36:31;13.20;58.70
46366;DHT22;32073;49.166;8.076;2022-12-20T15:40:33;13.20;58.70
46366;DHT22;32073;49.166;8.076;2022-12-20T15:44:35;13.20;58.60
46366;DHT22;32073;49.166;8.076;2022-12-20T15:48:36;13.20;58.60
46366;DHT22;32073;49.166;8.076;2022-12-20T15:52:37;13.20;58.60
46366;DHT22;32073;49.166;8.076;2022-12-20T15:56:37;13.20;58.50
46366;DHT22;32073;49.166;8.076;2022-12-20T16:00:39;13.30;58.50
46366;DHT22;32073;49.166;8.076;2022-12-20T16:04:40;13.30;58.40
46366;DHT22;32073;49.166;8.076;2022-12-20T16:08:41;13.30;58.40
46366;DHT22;32073;49.166;8.076;2022-12-20T16:12:42;13.40;58.40
46366;DHT22;32073;49.166;8.076;2022-12-20T16:16:43;13.40;58.30
46366;DHT22;32073;49.166;8.076;2022-12-20T16:20:45;13.40;58.20
46366;DHT22;32073;49.166;8.076;2022-12-20T16:24:46;13.40;58.10
46366;DHT22;32073;49.166;8.076;2022-12-20T16:28:48;13.40;58.10
46366;DHT22;32073;49.166;8.076;2022-12-20T16:32:50;13.50;58.10
46366;DHT22;32073;49.166;8.076;2022-12-20T16:36:51;13.40;58.10
46366;DHT22;32073;49.166;8.076;2022-12-20T16:40:52;13.50;58.10
46366;DHT22;32073;49.166;8.076;2022-12-20T16:44:52;13.50;58.00
46366;DHT22;32073;49.166;8.076;2022-12-20T16:48:54;13.50;58.00
46366;DHT22;32073;49.166;8.076;2022-12-20T16:52:56;13.50;57.80
46366;DHT22;32073;49.166;8.076;2022-12-20T16:56:57;13.50;57.80
46366;DHT22;32073;49.166;8.076;2022-12-20T17:00:58;13.50;57.80
46366;DHT22;32073;49.166;8.076;2022-12-20T17:04:59;13.50;57.80
46366;DHT22;32073;49.166;8.076;2022-12-20T17:09:00;13.50;57.70
46366;DHT22;32073;49.166;8.076;2022-12-20T17:13:00;13.50;57.70
46366;DHT22;32073;49.166;8.076;2022-12-20T17:17:01;13.50;57.60
46366;DHT22;32073;49.166;8.076;2022-12-20T17:21:19;13.50;57.70
46366;DHT22;32073;49.166;8.076;2022-12-20T17:29:23;13.50;57.60
46366;DHT22;32073;49.166;8.076;2022-12-20T17:33:24;13.50;57.60
46366;DHT22;32073;49.166;8.076;2022-12-20T17:37:25;13.50;57.60
46366;DHT22;32073;49.166;8.076;2022-12-20T17:41:29;13.50;57.60
46366;DHT22;32073;49.166;8.076;2022-12-20T17:45:32;13.40;57.40
46366;DHT22;32073;49.166;8.076;2022-12-20T17:49:35;13.50;57.50
46366;DHT22;32073;49.166;8.076;2022-12-20T17:53:37;13.40;57.40
46366;DHT22;32073;49.166;8.076;2022-12-20T17:57:37;13.40;57.50
46366;DHT22;32073;49.166;8.076;2022-12-20T18:01:39;13.40;57.60
46366;DHT22;32073;49.166;8.076;2022-12-20T18:05:40;13.40;57.60
46366;DHT22;32073;49.166;8.076;2022-12-20T18:09:41;13.40;57.60
46366;DHT22;32073;49.166;8.076;2022-12-20T18:13:43;13.40;57.50
46366;DHT22;32073;49.166;8.076;2022-12-20T18:17:45;13.40;57.40
46366;DHT22;32073;49.166;8.076;2022-12-20T18:21:45;13.30;57.40
46366;DHT22;32073;49.166;8.076;2022-12-20T18:25:46;13.30;57.40
46366;DHT22;32073;49.166;8.076;2022-12-20T18:29:47;13.30;57.50
46366;DHT22;32073;49.166;8.076;2022-12-20T18:33:47;13.30;57.50
46366;DHT22;32073;49.166;8.076;2022-12-20T18:37:48;13.30;57.50
46366;DHT22;32073;49.166;8.076;2022-12-20T18:41:48;13.30;57.50
46366;DHT22;32073;49.166;8.076;2022-12-20T18:45:49;13.30;57.50
46366;DHT22;32073;49.166;8.076;2022-12-20T18:49:50;13.30;57.50
46366;DHT22;32073;49.166;8.076;2022-12-20T18:53:53;13.30;57.50
46366;DHT22;32073;49.166;8.076;2022-12-20T18:57:55;13.20;57.40
46366;DHT22;32073;49.166;8.076;2022-12-20T19:01:55;13.30;57.50
46366;DHT22;32073;49.166;8.076;2022-12-20T19:05:58;13.20;57.40
46366;DHT22;32073;49.166;8.076;2022-12-20T19:09:59;13.20;57.50
46366;DHT22;32073;49.166;8.076;2022-12-20T19:14:00;13.30;57.60
46366;DHT22;32073;49.166;8.076;2022-12-20T19:18:01;13.30;57.60
46366;DHT22;32073;49.166;8.076;2022-12-20T19:22:01;13.30;57.60
46366;DHT22;32073;49.166;8.076;2022-12-20T19:26:04;13.30;57.60
46366;DHT22;32073;49.166;8.076;2022-12-20T19:30:07;13.30;57.50
46366;DHT22;32073;49.166;8.076;2022-12-20T19:34:10;13.40;57.60
46366;DHT22;32073;49.166;8.076;2022-12-20T19:38:11;13.30;58.10
46366;DHT22;32073;49.166;8.076;2022-12-20T19:42:12;13.40;57.70
46366;DHT22;32073;49.166;8.076;2022-12-20T19:46:13;13.40;57.70
46366;DHT22;32073;49.166;8.076;2022-12-20T19:50:14;13.40;57.80
46366;DHT22;32073;49.166;8.076;2022-12-20T19:54:14;13.50;58.00
46366;DHT22;32073;49.166;8.076;2022-12-20T19:58:15;13.50;58.10
46366;DHT22;32073;49.166;8.076;2022-12-20T20:02:16;13.50;58.20
46366;DHT22;32073;49.166;8.076;2022-12-20T20:06:16;13.50;58.20
46366;DHT22;32073;49.166;8.076;2022-12-20T20:10:17;13.50;58.30
46366;DHT22;32073;49.166;8.076;2022-12-20T20:14:18;13.50;58.30
46366;DHT22;32073;49.166;8.076;2022-12-20T20:18:19;13.50;58.40
46366;DHT22;32073;49.166;8.076;2022-12-20T20:22:20;13.50;58.70
46366;DHT22;32073;49.166;8.076;2022-12-20T20:26:23;13.50;58.60
46366;DHT22;32073;49.166;8.076;2022-12-20T20:30:25;13.50;58.80
46366;DHT22;32073;49.166;8.076;2022-12-20T20:34:26;13.50;58.90
46366;DHT22;32073;49.166;8.076;2022-12-20T20:38:28;13.50;59.00
46366;DHT22;32073;49.166;8.076;2022-12-20T20:42:29;13.50;59.00
46366;DHT22;32073;49.166;8.076;2022-12-20T20:46:30;13.40;59.00
46366;DHT22;32073;49.166;8.076;2022-12-20T20:50:31;13.40;58.90
46366;DHT22;32073;49.166;8.076;2022-12-20T20:54:31;13.40;59.00
46366;DHT22;32073;49.166;8.076;2022-12-20T20:58:33;13.40;58.90
46366;DHT22;32073;49.166;8.076;2022-12-20T21:02:34;13.30;58.90
46366;DHT22;32073;49.166;8.076;2022-12-20T21:06:35;13.30;59.00
46366;DHT22;32073;49.166;8.076;2022-12-20T21:10:36;13.30;59.00
46366;DHT22;32073;49.166;8.076;2022-12-20T21:14:37;13.20;59.00
46366;DHT22;32073;49.166;8.076;2022-12-20T21:18:38;13.20;59.30
46366;DHT22;32073;49.166;8.076;2022-12-20T21:22:38;13.20;59.00
46366;DHT22;32073;49.166;8.076;2022-12-20T21:26:39;13.20;59.00
46366;DHT22;32073;49.166;8.076;2022-12-20T21:30:40;13.10;59.00
46366;DHT22;32073;49.166;8.076;2022-12-20T21:34:40;13.10;59.00
46366;DHT22;32073;49.166;8.076;2022-12-20T21:38:45;13.00;59.10
46366;DHT22;32073;49.166;8.076;2022-12-20T21:42:46;13.00;59.10
46366;DHT22;32073;49.166;8.076;2022-12-20T21:46:47;13.00;59.20
46366;DHT22;32073;49.166;8.076;2022-12-20T21:54:59;12.90;59.80
46366;DHT22;32073;49.166;8.076;2022-12-20T21:59:01;12.90;59.70
46366;DHT22;32073;49.166;8.076;2022-12-20T22:03:03;12.90;59.80
46366;DHT22;32073;49.166;8.076;2022-12-20T22:07:03;12.90;59.80
46366;DHT22;32073;49.166;8.076;2022-12-20T22:11:06;12.90;59.80
46366;DHT22;32073;49.166;8.076;2022-12-20T22:15:09;12.90;60.00
46366;DHT22;32073;49.166;8.076;2022-12-20T22:19:12;12.90;60.00
46366;DHT22;32073;49.166;8.076;2022-12-20T22:23:14;12.90;60.20
46366;DHT22;32073;49.166;8.076;2022-12-20T22:27:15;12.90;60.90
46366;DHT22;32073;49.166;8.076;2022-12-20T22:31:17;12.90;60.40
46366;DHT22;32073;49.166;8.076;2022-12-20T22:35:19;13.00;60.60
46366;DHT22;32073;49.166;8.076;2022-12-20T22:39:19;13.00;60.70
46366;DHT22;32073;49.166;8.076;2022-12-20T22:43:20;13.00;60.70
46366;DHT22;32073;49.166;8.076;2022-12-20T22:47:21;13.00;60.70
46366;DHT22;32073;49.166;8.076;2022-12-20T22:51:22;13.10;60.80
46366;DHT22;32073;49.166;8.076;2022-12-20T22:55:25;13.10;60.70
46366;DHT22;32073;49.166;8.076;2022-12-20T22:59:25;13.10;60.70
46366;DHT22;32073;49.166;8.076;2022-12-20T23:03:27;13.10;60.70
46366;DHT22;32073;49.166;8.076;2022-12-20T23:07:28;13.10;60.70
46366;DHT22;32073;49.166;8.076;2022-12-20T23:11:29;13.00;60.70
46366;DHT22;32073;49.166;8.076;2022-12-20T23:15:48;13.10;60.70
46366;DHT22;32073;49.166;8.076;2022-12-20T23:19:52;13.00;60.70
46366;DHT22;32073;49.166;8.076;2022-12-20T23:24:15;13.00;60.80
46366;DHT22;32073;49.166;8.076;2022-12-20T23:28:15;13.00;60.80
46366;DHT22;32073;49.166;8.076;2022-12-20T23:32:16;13.00;60.80
46366;DHT22;32073;49.166;8.076;2022-12-20T23:36:17;13.00;60.80
46366;DHT22;32073;49.166;8.076;2022-12-20T23:40:17;13.00;60.80
46366;DHT22;32073;49.166;8.076;2022-12-20T23:44:18;12.90;60.80
46366;DHT22;32073;49.166;8.076;2022-12-20T23:48:19;13.00;60.90
46366;DHT22;32073;49.166;8.076;2022-12-20T23:52:19;12.90;61.00
46366;DHT22;32073;49.166;8.076;2022-12-20T23:56:21;12.90;61.10
